Time;durP1;ratioP1;P1;durP2;ratioP2;P2;SDS_P1;SDS_P2;PMS_P1;PMS_P2;Temp;Humidity;BMP_temperature;BMP_pressure;BME280_temperature;BME280_humidity;BME280_pressure;Samples;Min_cycle;Max_cycle;Signal;HPM_P1;HPM_P2
2022/08/13 00:02:42;;;;;;;7.43;3.10;;;17.10;1.00;;;;;;5055042;28;20597;-26
2022/08/13 00:05:02;;;;;;;3.00;2.47;;;17.20;1.00;;;;;;5050666;28;20080;-26
2022/08/13 00:07:29;;;;;;;3.85;2.67;;;17.30;1.00;;;;;;5054837;28;20548;-26
2022/08/13 00:09:56;;;;;;;6.40;3.05;;;17.30;1.00;;;;;;5054791;28;20103;-26
2022/08/13 00:15:14;;;;;;;9.13;3.95;;;17.30;99.90;;;;;;5052905;28;20056;-26
2022/08/13 00:17:42;;;;;;;5.55;3.20;;;17.40;99.90;;;;;;5054185;28;20056;-26
2022/08/13 00:20:09;;;;;;;5.53;3.35;;;17.50;99.90;;;;;;5054572;28;20099;-26
2022/08/13 00:22:35;;;;;;;6.68;3.30;;;17.50;99.90;;;;;;5054532;28;20045;-26
2022/08/13 00:25:05;;;;;;;4.40;3.53;;;17.50;99.90;;;;;;5054487;28;20045;-26
2022/08/13 00:27:31;;;;;;;9.77;3.35;;;17.50;99.90;;;;;;5053669;28;20041;-26
2022/08/13 00:29:57;;;;;;;8.00;3.33;;;17.50;99.90;;;;;;5054686;28;20368;-26
2022/08/13 00:32:29;;;;;;;6.72;3.80;;;17.50;99.90;;;;;;5052762;28;20131;-26
2022/08/13 00:34:59;;;;;;;10.77;3.05;;;17.40;99.90;;;;;;5054664;28;20124;-26
2022/08/13 00:37:27;;;;;;;9.98;3.10;;;17.40;99.90;;;;;;5052257;28;20048;-26
2022/08/13 00:39:56;;;;;;;6.38;3.60;;;17.40;99.90;;;;;;5054843;28;20055;-27
2022/08/13 00:42:24;;;;;;;5.38;3.55;;;17.40;99.90;;;;;;5054143;28;20510;-26
2022/08/13 00:44:50;;;;;;;4.82;3.60;;;17.30;99.90;;;;;;5054694;28;20098;-26
2022/08/13 00:50:01;;;;;;;5.47;3.25;;;17.10;1.00;;;;;;5054168;28;20102;-26
2022/08/13 00:52:30;;;;;;;3.95;3.53;;;17.00;1.00;;;;;;5054013;28;20078;-26
2022/08/13 00:55:01;;;;;;;6.55;3.97;;;16.90;1.00;;;;;;5053969;28;20045;-26
2022/08/13 00:57:28;;;;;;;7.93;4.40;;;16.80;1.00;;;;;;5051272;28;20044;-26
2022/08/13 00:59:55;;;;;;;10.88;4.65;;;16.60;1.00;;;;;;5054173;28;20083;-26
2022/08/13 01:02:21;;;;;;;5.55;4.60;;;16.30;1.00;;;;;;5052584;28;20049;-27
2022/08/13 01:04:47;;;;;;;8.05;4.60;;;16.00;1.00;;;;;;5053847;28;20053;-26
2022/08/13 01:07:18;;;;;;;8.80;4.90;;;15.70;1.00;;;;;;5052649;28;20134;-26
2022/08/13 01:09:44;;;;;;;9.07;4.70;;;15.50;1.00;;;;;;5052089;28;20083;-27
2022/08/13 01:12:13;;;;;;;6.65;5.47;;;15.30;1.00;;;;;;5052800;28;20495;-26
2022/08/13 01:14:40;;;;;;;6.90;5.78;;;15.20;1.00;;;;;;5053102;28;20049;-26
2022/08/13 01:17:07;;;;;;;14.73;5.88;;;15.00;1.00;;;;;;5052175;28;20092;-26
2022/08/13 01:19:34;;;;;;;6.50;4.78;;;14.90;1.00;;;;;;5052575;28;20487;-26
2022/08/13 01:22:01;;;;;;;9.43;5.05;;;14.80;1.00;;;;;;5053604;28;20060;-26
2022/08/13 01:24:28;;;;;;;7.13;5.70;;;14.70;39.70;;;;;;5053591;28;20053;-26
2022/08/13 01:26:57;;;;;;;6.50;5.90;;;14.60;63.80;;;;;;5053569;28;20043;-26
2022/08/13 01:29:23;;;;;;;9.85;6.47;;;14.50;99.00;;;;;;5052397;28;20045;-26
2022/08/13 01:31:51;;;;;;;8.38;6.50;;;14.40;99.90;;;;;;5052972;28;20429;-26
2022/08/13 01:34:18;;;;;;;11.73;6.35;;;14.30;99.90;;;;;;5053469;28;20099;-26
2022/08/13 01:36:49;;;;;;;10.00;6.30;;;14.20;99.90;;;;;;5053421;28;20053;-26
2022/08/13 01:39:15;;;;;;;8.20;5.38;;;14.20;99.90;;;;;;5051552;28;20407;-26
2022/08/13 01:41:40;;;;;;;9.38;5.10;;;14.30;99.90;;;;;;5053319;28;20132;-26
2022/08/13 01:44:08;;;;;;;6.03;5.43;;;14.40;99.90;;;;;;5053078;28;20080;-26
2022/08/13 01:52:08;;;;;;;7.07;5.28;;;14.80;1.00;;;;;;5053110;28;20430;-26
2022/08/13 01:54:36;;;;;;;9.93;5.63;;;15.00;1.00;;;;;;5053624;28;20080;-26
2022/08/13 01:57:06;;;;;;;7.65;4.72;;;15.00;1.00;;;;;;5053197;28;20053;-26
2022/08/13 01:59:36;;;;;;;7.47;4.80;;;15.10;1.00;;;;;;5053227;28;20044;-26
2022/08/13 02:02:04;;;;;;;5.93;4.68;;;15.20;1.00;;;;;;5049907;28;20087;-26
2022/08/13 02:04:32;;;;;;;6.15;4.88;;;15.30;1.00;;;;;;5049396;28;20411;-26
2022/08/13 02:06:59;;;;;;;9.15;5.30;;;15.40;7.80;;;;;;5053108;28;20103;-27
2022/08/13 02:09:26;;;;;;;8.73;4.60;;;15.50;1.00;;;;;;5053208;28;20048;-26
2022/08/13 02:11:52;;;;;;;11.05;4.82;;;15.50;1.00;;;;;;5052228;28;20057;-26
2022/08/13 02:14:19;;;;;;;8.10;4.63;;;15.60;1.00;;;;;;5053143;28;20127;-26
2022/08/13 02:16:45;;;;;;;7.20;4.57;;;15.60;1.00;;;;;;5053369;28;20037;-26
2022/08/13 02:19:10;;;;;;;7.65;4.20;;;15.60;1.00;;;;;;5052914;28;20391;-26
2022/08/13 02:21:38;;;;;;;9.80;4.68;;;15.60;1.00;;;;;;5052058;28;20479;-26
2022/08/13 02:24:13;;;;;;;4.82;4.30;;;15.70;1.00;;;;;;5052899;28;20063;-26
2022/08/13 02:26:43;;;;;;;6.93;4.70;;;15.60;1.00;;;;;;5057208;28;20045;-26
2022/08/13 02:29:09;;;;;;;10.00;4.88;;;15.60;1.00;;;;;;5056379;28;20495;-26
2022/08/13 02:31:36;;;;;;;10.50;5.85;;;15.30;99.90;;;;;;5056656;28;20546;-26
2022/08/13 02:34:02;;;;;;;8.90;6.18;;;15.00;99.90;;;;;;5054779;28;20407;-27
2022/08/13 02:36:28;;;;;;;8.55;6.18;;;14.70;99.90;;;;;;5055084;28;20048;-26
2022/08/13 02:39:03;;;;;;;7.85;5.72;;;14.50;99.90;;;;;;5056795;28;20041;-26
2022/08/13 02:41:38;;;;;;;6.40;5.80;;;14.30;99.90;;;;;;5055589;28;20049;-26
2022/08/13 02:44:05;;;;;;;7.45;6.68;;;14.10;99.90;;;;;;5054650;28;20395;-26
2022/08/13 02:46:31;;;;;;;13.68;6.82;;;14.00;99.90;;;;;;5056361;28;20052;-26
2022/08/13 02:49:02;;;;;;;6.75;6.13;;;13.90;99.90;;;;;;5056353;28;20049;-26
2022/08/13 02:51:30;;;;;;;9.38;5.50;;;13.80;99.90;;;;;;5056226;28;20096;-26
2022/08/13 02:53:56;;;;;;;8.00;5.88;;;13.70;1.00;;;;;;5055266;28;20052;-26
2022/08/13 02:56:22;;;;;;;9.10;6.00;;;13.70;1.00;;;;;;5056424;28;20044;-26
2022/08/13 02:58:48;;;;;;;9.60;6.70;;;13.60;1.00;;;;;;5055052;28;20056;-26
2022/08/13 03:01:14;;;;;;;9.27;8.02;;;13.70;1.00;;;;;;5056193;28;20048;-26
2022/08/13 03:03:40;;;;;;;11.80;8.77;;;13.60;1.00;;;;;;5054467;28;20091;-29
2022/08/13 03:06:10;;;;;;;10.23;8.95;;;13.60;1.00;;;;;;5055815;28;20052;-26
2022/08/13 03:08:37;;;;;;;14.35;8.43;;;13.60;1.00;;;;;;5055020;28;20559;-26
2022/08/13 03:11:03;;;;;;;10.02;7.90;;;13.50;1.00;;;;;;5055604;28;20045;-26
2022/08/13 03:13:33;;;;;;;8.93;6.25;;;13.50;31.90;;;;;;5038161;28;20120;-26
2022/08/13 03:16:01;;;;;;;8.68;7.65;;;13.40;23.10;;;;;;5054716;28;20044;-26
2022/08/13 03:18:27;;;;;;;8.52;7.65;;;13.40;41.80;;;;;;5055390;28;20396;-26
2022/08/13 03:20:53;;;;;;;12.30;8.35;;;13.30;50.90;;;;;;5055745;28;20064;-26
2022/08/13 03:23:22;;;;;;;10.10;8.30;;;13.20;91.00;;;;;;5055734;28;20053;-26
2022/08/13 03:25:49;;;;;;;9.75;8.75;;;13.20;95.40;;;;;;5052798;28;20384;-26
2022/08/13 03:28:14;;;;;;;11.43;10.20;;;13.10;99.90;;;;;;5055662;28;20057;-26
2022/08/13 03:30:41;;;;;;;14.00;8.65;;;13.10;99.90;;;;;;5055834;28;20045;-26
2022/08/13 03:33:13;;;;;;;16.55;9.88;;;13.10;99.90;;;;;;5055110;28;20434;-25
2022/08/13 03:35:40;;;;;;;18.20;11.98;;;13.10;99.90;;;;;;5054461;28;20566;-26
2022/08/13 03:38:10;;;;;;;15.90;9.77;;;13.10;99.90;;;;;;5070367;28;20049;-26
2022/08/13 03:43:21;;;;;;;9.95;7.82;;;13.10;99.90;;;;;;5055364;28;20140;-26
2022/08/13 03:45:47;;;;;;;10.57;7.88;;;13.20;99.90;;;;;;5055295;28;20122;-27
2022/08/13 03:48:15;;;;;;;8.88;7.75;;;13.20;99.90;;;;;;5053894;28;20434;-26
2022/08/13 03:50:42;;;;;;;10.40;8.45;;;13.30;99.90;;;;;;5054863;28;20503;-26
2022/08/13 03:53:09;;;;;;;8.50;7.60;;;13.30;99.90;;;;;;5055402;28;20052;-26
2022/08/13 03:55:37;;;;;;;8.85;6.88;;;13.40;99.90;;;;;;5055077;28;20064;-26
2022/08/13 03:58:05;;;;;;;7.45;6.50;;;13.40;99.90;;;;;;5053805;28;20487;-26
2022/08/13 04:00:37;;;;;;;6.68;5.80;;;13.50;99.90;;;;;;5053810;28;20045;-26
2022/08/13 04:03:19;;;;;;;10.25;6.68;;;13.60;99.90;;;;;;5054869;28;20049;-26
2022/08/13 04:05:45;;;;;;;5.80;5.10;;;13.70;99.90;;;;;;5053664;28;20056;-26
2022/08/13 04:08:11;;;;;;;9.70;5.53;;;13.80;99.90;;;;;;5053173;28;20072;-26
2022/08/13 04:10:37;;;;;;;7.53;4.90;;;13.90;99.90;;;;;;5054371;28;20087;-26
2022/08/13 04:13:09;;;;;;;6.78;4.63;;;14.00;99.90;;;;;;5054718;28;20045;-26
2022/08/13 04:15:34;;;;;;;5.03;4.30;;;14.10;99.90;;;;;;5054752;28;20099;-26
2022/08/13 04:18:00;;;;;;;5.07;4.00;;;14.20;99.90;;;;;;5053034;28;20061;-26
2022/08/13 04:20:26;;;;;;;7.95;3.90;;;14.30;99.90;;;;;;5052539;28;20433;-26
2022/08/13 04:22:52;;;;;;;4.63;3.65;;;14.40;99.90;;;;;;5054536;28;20045;-26
2022/08/13 04:25:18;;;;;;;7.03;4.10;;;14.60;99.90;;;;;;5054575;28;20045;-26
2022/08/13 04:27:43;;;;;;;15.90;4.22;;;14.70;99.90;;;;;;5054461;28;20502;-26
2022/08/13 04:30:09;;;;;;;7.80;4.30;;;14.80;37.90;;;;;;5053073;28;20037;-26
2022/08/13 04:32:42;;;;;;;8.13;3.97;;;15.00;1.00;;;;;;5053661;28;20040;-26
2022/08/13 04:35:08;;;;;;;6.75;3.28;;;15.20;1.00;;;;;;5054355;28;20048;-26
2022/08/13 04:37:34;;;;;;;7.93;3.65;;;15.20;1.00;;;;;;5054204;28;20044;-26
2022/08/13 04:40:00;;;;;;;5.03;3.67;;;15.40;99.90;;;;;;5053848;28;20045;-27
2022/08/13 04:42:26;;;;;;;6.97;3.40;;;15.50;99.90;;;;;;5053764;28;20434;-26
2022/08/13 04:44:52;;;;;;;11.68;3.33;;;15.70;99.90;;;;;;5054220;28;20044;-26
2022/08/13 04:47:17;;;;;;;7.25;2.95;;;15.80;99.90;;;;;;5053916;28;20453;-26
2022/08/13 04:49:47;;;;;;;6.90;3.30;;;15.90;62.20;;;;;;5053213;28;20091;-26
2022/08/13 04:52:13;;;;;;;6.75;3.63;;;16.10;1.00;;;;;;5052654;28;20521;-27
2022/08/13 04:54:39;;;;;;;7.03;3.22;;;16.20;1.00;;;;;;5054076;28;20049;-26
2022/08/13 04:57:05;;;;;;;8.13;3.50;;;16.30;1.00;;;;;;5053931;28;20041;-27
2022/08/13 04:59:31;;;;;;;4.88;3.08;;;16.30;1.00;;;;;;5053035;28;20091;-26
2022/08/13 05:01:56;;;;;;;7.32;3.20;;;16.40;99.90;;;;;;5053095;28;20076;-26
2022/08/13 05:04:22;;;;;;;10.35;4.10;;;16.50;99.90;;;;;;5054139;28;20103;-27
2022/08/13 05:06:49;;;;;;;4.82;3.20;;;16.60;99.90;;;;;;5053833;28;20040;-26
2022/08/13 05:09:15;;;;;;;5.25;3.47;;;16.70;99.90;;;;;;5054099;28;20073;-26
2022/08/13 05:11:40;;;;;;;6.03;2.85;;;16.70;99.90;;;;;;5052721;28;20045;-26
2022/08/13 05:14:06;;;;;;;9.98;3.55;;;16.80;99.90;;;;;;5052635;28;20049;-26
2022/08/13 05:16:32;;;;;;;9.52;3.90;;;16.80;99.90;;;;;;5053677;28;20390;-26
2022/08/13 05:18:58;;;;;;;8.35;2.80;;;17.00;99.90;;;;;;5053947;28;20057;-26
2022/08/13 05:21:25;;;;;;;6.88;3.03;;;17.00;99.90;;;;;;5054295;28;20053;-27
2022/08/13 05:23:55;;;;;;;6.13;3.08;;;17.10;99.90;;;;;;5052755;28;20045;-26
2022/08/13 05:26:23;;;;;;;6.18;2.92;;;17.10;99.90;;;;;;5054467;28;20064;-26
2022/08/13 05:28:50;;;;;;;7.88;3.35;;;17.20;99.90;;;;;;5054405;28;20147;-26
2022/08/13 05:31:19;;;;;;;5.32;2.80;;;17.20;92.50;;;;;;5054110;28;20052;-26
2022/08/13 05:33:45;;;;;;;3.47;2.75;;;17.30;81.70;;;;;;5052418;28;20491;-26
2022/08/13 05:36:13;;;;;;;11.57;3.38;;;17.40;67.10;;;;;;5053457;28;20044;-27
2022/08/13 05:38:39;;;;;;;6.18;3.22;;;17.50;45.20;;;;;;5052826;28;20053;-27
2022/08/13 05:41:11;;;;;;;7.05;3.47;;;17.60;39.70;;;;;;5052541;28;20092;-26
2022/08/13 05:43:37;;;;;;;3.42;2.70;;;17.60;6.20;;;;;;5053171;28;20064;-26
2022/08/13 05:46:06;;;;;;;5.32;2.90;;;17.70;1.00;;;;;;5053391;28;20072;-27
2022/08/13 05:48:37;;;;;;;8.70;3.03;;;17.80;1.00;;;;;;5053273;28;20515;-26
2022/08/13 05:51:05;;;;;;;5.60;2.83;;;17.90;1.00;;;;;;5052619;28;20064;-26
2022/08/13 05:53:36;;;;;;;8.45;2.72;;;17.90;1.00;;;;;;5051537;28;20602;-30
2022/08/13 05:56:03;;;;;;;5.05;2.50;;;18.10;1.00;;;;;;5050227;28;20045;-26
2022/08/13 05:58:29;;;;;;;4.30;2.63;;;18.10;1.00;;;;;;5053239;28;20064;-26
2022/08/13 06:03:40;;;;;;;7.95;3.53;;;18.30;1.00;;;;;;5057185;28;20187;-26
2022/08/13 06:06:08;;;;;;;6.05;3.40;;;18.40;1.00;;;;;;5054873;28;20131;-26
2022/08/13 06:08:37;;;;;;;5.13;2.95;;;18.50;2.20;;;;;;5057311;28;20076;-26
2022/08/13 06:11:06;;;;;;;10.43;3.42;;;18.60;43.40;;;;;;5057827;28;20399;-26
2022/08/13 06:13:33;;;;;;;4.63;3.22;;;18.70;85.40;;;;;;5057576;28;20048;-26
2022/08/13 06:16:00;;;;;;;6.47;3.63;;;18.80;99.90;;;;;;5055843;28;20049;-26
2022/08/13 06:18:31;;;;;;;4.22;3.00;;;18.80;90.40;;;;;;5056876;28;20065;-26
2022/08/13 06:20:59;;;;;;;5.85;3.30;;;19.00;55.80;;;;;;5055734;28;20475;-26
2022/08/13 06:23:28;;;;;;;7.47;3.17;;;19.10;47.60;;;;;;5057061;28;20103;-26
2022/08/13 06:25:54;;;;;;;5.03;2.70;;;19.20;1.00;;;;;;5055629;28;20053;-26
2022/08/13 06:28:26;;;;;;;8.98;3.00;;;19.30;1.00;;;;;;5057313;28;20059;-26
2022/08/13 06:30:59;;;;;;;6.45;2.97;;;19.40;1.00;;;;;;5056622;28;20045;-26
2022/08/13 06:33:27;;;;;;;7.28;2.58;;;19.50;1.00;;;;;;5056898;28;20048;-26
2022/08/13 06:35:58;;;;;;;5.78;2.53;;;19.70;1.00;;;;;;5055303;28;20040;-26
2022/08/13 06:38:36;;;;;;;6.25;2.70;;;19.80;1.00;;;;;;5055566;28;20083;-26
2022/08/13 06:41:04;;;;;;;9.02;2.50;;;20.00;1.00;;;;;;5056844;28;20052;-26
2022/08/13 06:43:33;;;;;;;5.88;2.50;;;20.10;1.00;;;;;;5056480;28;20099;-26
2022/08/13 06:46:00;;;;;;;8.43;2.35;;;20.20;1.00;;;;;;5056434;28;20099;-26
2022/08/13 06:48:26;;;;;;;6.95;3.10;;;20.40;99.90;;;;;;5055705;28;20045;-26
2022/08/13 06:50:53;;;;;;;7.93;2.40;;;20.50;99.90;;;;;;5054841;28;20049;-26
2022/08/13 06:53:19;;;;;;;5.25;2.05;;;20.70;99.90;;;;;;5056294;28;20049;-26
2022/08/13 06:55:48;;;;;;;2.65;2.00;;;20.80;99.90;;;;;;5055003;28;20045;-26
2022/08/13 06:58:15;;;;;;;3.28;2.08;;;21.00;99.90;;;;;;5049417;28;20099;-26
2022/08/13 07:00:43;;;;;;;2.97;2.03;;;21.10;99.90;;;;;;5048129;28;20483;-26
2022/08/13 07:03:10;;;;;;;4.38;1.85;;;21.20;99.90;;;;;;5050884;28;20128;-26
2022/08/13 07:05:41;;;;;;;3.95;2.15;;;21.40;99.90;;;;;;5056024;28;20098;-26
2022/08/13 07:08:09;;;;;;;8.02;2.20;;;21.50;99.90;;;;;;5055969;28;20041;-27
2022/08/13 07:10:41;;;;;;;4.40;2.20;;;21.50;99.90;;;;;;5055952;28;20057;-26
2022/08/13 07:13:07;;;;;;;6.17;2.30;;;21.60;99.90;;;;;;5054147;28;20049;-26
2022/08/13 07:15:33;;;;;;;7.82;2.42;;;21.70;99.90;;;;;;5055758;28;20483;-26
2022/08/13 07:17:59;;;;;;;8.63;2.30;;;21.80;94.40;;;;;;5055688;28;20057;-26
2022/08/13 07:20:25;;;;;;;6.82;2.42;;;21.80;64.70;;;;;;5055796;28;20055;-26
2022/08/13 07:22:53;;;;;;;3.08;2.03;;;21.90;81.10;;;;;;5054488;28;20479;-26
2022/08/13 07:25:24;;;;;;;6.35;2.40;;;22.00;99.90;;;;;;5055707;28;20376;-26
2022/08/13 07:27:54;;;;;;;3.15;1.63;;;22.20;95.80;;;;;;5055375;28;20475;-26
2022/08/13 07:30:21;;;;;;;2.53;1.60;;;22.30;1.00;;;;;;5044700;28;20480;-26
2022/08/13 07:32:47;;;;;;;3.63;1.65;;;22.50;1.00;;;;;;5035542;28;20103;-26
2022/08/13 07:35:13;;;;;;;4.65;1.63;;;22.60;1.00;;;;;;5035580;28;20052;-26
2022/08/13 07:37:41;;;;;;;5.60;1.85;;;22.70;1.00;;;;;;5035484;28;20045;-26
2022/08/13 07:40:08;;;;;;;8.50;1.70;;;22.80;99.90;;;;;;5035469;28;20139;-26
2022/08/13 07:42:39;;;;;;;4.20;1.80;;;23.00;99.90;;;;;;5035437;28;20490;-26
2022/08/13 07:45:09;;;;;;;3.03;1.52;;;23.10;99.90;;;;;;5047740;28;20041;-26
2022/08/13 07:47:38;;;;;;;3.78;1.42;;;23.20;99.90;;;;;;5049238;28;20415;-26
2022/08/13 07:50:10;;;;;;;5.03;1.52;;;23.40;99.90;;;;;;5055817;28;20124;-26
2022/08/13 07:52:38;;;;;;;4.93;1.43;;;23.50;99.90;;;;;;5055105;28;20045;-26
2022/08/13 07:55:05;;;;;;;5.30;1.60;;;23.60;29.80;;;;;;5053007;28;20322;-26
2022/08/13 07:57:32;;;;;;;2.90;1.48;;;23.70;21.80;;;;;;5054360;28;20083;-26
2022/08/13 07:59:58;;;;;;;4.47;1.42;;;23.80;12.10;;;;;;5053904;28;20110;-26
2022/08/13 08:02:27;;;;;;;3.05;1.33;;;24.00;99.90;;;;;;5055003;28;20064;-27
2022/08/13 08:04:56;;;;;;;6.50;1.10;;;24.10;99.90;;;;;;5053803;28;20056;-27
2022/08/13 08:07:25;;;;;;;4.78;1.60;;;24.30;1.00;;;;;;5055685;28;20045;-26
2022/08/13 08:09:52;;;;;;;2.35;1.20;;;24.40;1.00;;;;;;5054859;28;20052;-26
2022/08/13 08:12:32;;;;;;;5.85;0.90;;;24.50;1.00;;;;;;5055047;28;20051;-26
2022/08/13 08:15:00;;;;;;;2.35;0.93;;;24.70;1.00;;;;;;5055077;28;20080;-26
2022/08/13 08:17:27;;;;;;;3.53;1.30;;;24.80;99.90;;;;;;5053487;28;20057;-26
2022/08/13 08:19:53;;;;;;;3.55;1.40;;;24.90;99.90;;;;;;5054665;28;20052;-26
2022/08/13 08:22:20;;;;;;;8.00;1.45;;;25.10;99.90;;;;;;5054441;28;20045;-26
2022/08/13 08:24:50;;;;;;;5.57;0.90;;;25.20;99.90;;;;;;5054812;28;20041;-27
2022/08/13 08:27:17;;;;;;;8.02;1.08;;;25.30;99.90;;;;;;5053445;28;20073;-27
2022/08/13 08:29:44;;;;;;;2.38;1.00;;;25.40;99.90;;;;;;5054446;28;20084;-26
2022/08/13 08:32:12;;;;;;;2.65;1.00;;;25.40;99.90;;;;;;5053199;28;20091;-26
2022/08/13 08:34:40;;;;;;;3.97;1.98;;;25.60;99.90;;;;;;5053604;28;20053;-29
2022/08/13 08:37:06;;;;;;;1.42;0.93;;;25.70;99.90;;;;;;5052215;28;20052;-26
2022/08/13 08:45:14;;;;;;;2.13;0.90;;;26.10;99.90;;;;;;5054508;28;20106;-27
2022/08/13 08:47:41;;;;;;;4.80;1.00;;;26.20;99.90;;;;;;5054964;28;20045;-27
2022/08/13 08:50:09;;;;;;;5.55;0.90;;;26.30;99.90;;;;;;5054066;28;20045;-26
2022/08/13 08:55:20;;;;;;;6.88;0.88;;;26.50;99.90;;;;;;5053081;28;20478;-26
2022/08/13 08:57:47;;;;;;;1.60;1.00;;;26.70;99.90;;;;;;5053904;28;20051;-27
2022/08/13 09:00:18;;;;;;;4.18;0.70;;;26.80;99.90;;;;;;5053812;28;20048;-26
2022/08/13 09:02:47;;;;;;;4.20;0.88;;;26.90;99.90;;;;;;5054757;28;20049;-27
2022/08/13 09:05:17;;;;;;;4.70;1.52;;;27.00;99.90;;;;;;5054127;28;20041;-27
2022/08/13 09:07:47;;;;;;;5.90;0.68;;;27.30;99.90;;;;;;5047794;28;20049;-27
2022/08/13 09:10:15;;;;;;;3.20;0.85;;;28.10;99.90;;;;;;5046972;28;20043;-27
2022/08/13 09:12:43;;;;;;;0.95;0.60;;;29.00;99.90;;;;;;5049932;28;20053;-27
2022/08/13 09:15:17;;;;;;;2.58;0.80;;;29.80;99.90;;;;;;5069629;28;20078;-26
2022/08/13 09:17:45;;;;;;;1.75;0.55;;;30.30;99.90;;;;;;5069592;28;20114;-27
2022/08/13 09:20:18;;;;;;;6.40;0.90;;;30.80;99.90;;;;;;5052636;28;20080;-27
2022/08/13 09:22:46;;;;;;;2.55;0.65;;;31.40;99.90;;;;;;5053633;28;20452;-27
2022/08/13 09:25:15;;;;;;;3.15;0.63;;;31.80;99.90;;;;;;5053497;28;20059;-27
2022/08/13 09:27:43;;;;;;;4.10;1.00;;;31.90;99.90;;;;;;5052141;28;20052;-28
2022/08/13 09:30:10;;;;;;;3.05;0.80;;;31.90;99.90;;;;;;5051811;28;20042;-27
2022/08/13 09:32:37;;;;;;;2.60;0.70;;;32.10;99.90;;;;;;5053856;28;20069;-26
2022/08/13 09:35:06;;;;;;;1.73;0.70;;;32.30;99.90;;;;;;5055315;28;20040;-27
2022/08/13 09:37:32;;;;;;;1.67;0.70;;;32.60;99.90;;;;;;5059922;28;20045;-27
2022/08/13 09:40:11;;;;;;;2.05;0.68;;;32.70;99.90;;;;;;5057329;28;20037;-27
2022/08/13 09:42:49;;;;;;;4.15;0.60;;;32.60;99.90;;;;;;5059653;28;20041;-27
2022/08/13 09:45:17;;;;;;;3.08;0.60;;;32.70;99.90;;;;;;5055930;28;20048;-27
2022/08/13 09:47:43;;;;;;;4.20;0.68;;;32.70;99.90;;;;;;5057762;28;20055;-29
2022/08/13 09:50:10;;;;;;;4.55;0.52;;;32.90;99.90;;;;;;5042872;28;20475;-27
2022/08/13 09:52:37;;;;;;;5.55;0.90;;;33.00;99.90;;;;;;5051279;28;20051;-27
2022/08/13 09:55:04;;;;;;;2.33;0.75;;;33.10;99.90;;;;;;5050030;28;20128;-28
2022/08/13 09:57:30;;;;;;;2.05;0.65;;;33.20;99.90;;;;;;5058065;28;20045;-27
2022/08/13 09:59:56;;;;;;;4.05;0.40;;;33.20;99.90;;;;;;5054379;28;20376;-27
2022/08/13 10:02:22;;;;;;;4.57;0.50;;;33.10;99.90;;;;;;5041409;28;20045;-27
2022/08/13 10:04:52;;;;;;;6.60;1.30;;;33.20;99.90;;;;;;5058907;28;20075;-27
2022/08/13 10:07:18;;;;;;;2.47;1.02;;;33.50;99.90;;;;;;5060430;28;20045;-27
2022/08/13 10:09:44;;;;;;;3.25;0.80;;;33.70;99.90;;;;;;5060726;28;20055;-27
2022/08/13 10:12:10;;;;;;;1.83;0.70;;;33.80;99.90;;;;;;5057811;28;20047;-27
2022/08/13 10:14:35;;;;;;;1.80;0.60;;;33.80;99.90;;;;;;5059752;28;20401;-27
2022/08/13 10:17:03;;;;;;;5.30;0.60;;;33.60;99.90;;;;;;5058125;28;20098;-27
2022/08/13 10:19:29;;;;;;;6.10;0.70;;;33.50;99.90;;;;;;5057966;28;20056;-27
2022/08/13 10:21:55;;;;;;;2.33;0.85;;;33.50;99.90;;;;;;5058858;28;20040;-27
2022/08/13 10:24:21;;;;;;;3.15;0.93;;;33.60;99.90;;;;;;5058602;28;20085;-27
2022/08/13 10:26:47;;;;;;;3.47;0.80;;;33.60;99.90;;;;;;5059788;28;20084;-27
2022/08/13 10:29:12;;;;;;;4.32;1.35;;;33.80;99.90;;;;;;5058658;28;20044;-27
2022/08/13 10:31:38;;;;;;;5.47;0.88;;;33.80;99.90;;;;;;5059889;28;20051;-27
2022/08/13 10:34:05;;;;;;;2.47;0.90;;;34.00;99.90;;;;;;5060186;28;20565;-27
2022/08/13 10:36:32;;;;;;;1.63;0.80;;;34.30;99.90;;;;;;5059521;28;20037;-27
2022/08/13 10:38:58;;;;;;;2.22;0.57;;;34.30;99.90;;;;;;5059043;28;20041;-27
2022/08/13 10:41:24;;;;;;;2.35;0.82;;;34.60;99.90;;;;;;5059671;28;20471;-27
2022/08/13 10:43:51;;;;;;;0.95;0.55;;;34.90;99.90;;;;;;5055346;28;20088;-27
2022/08/13 10:46:17;;;;;;;4.55;0.90;;;34.80;99.90;;;;;;5057993;28;20509;-28
2022/08/13 10:48:49;;;;;;;3.67;0.77;;;34.80;99.90;;;;;;5048020;28;20045;-27
2022/08/13 10:51:15;;;;;;;1.45;0.68;;;34.60;99.90;;;;;;5042111;28;20049;-28
2022/08/13 10:53:55;;;;;;;2.95;0.80;;;34.50;99.90;;;;;;5046924;28;20122;-27
2022/08/13 10:56:22;;;;;;;1.65;0.70;;;34.70;99.90;;;;;;5045136;28;20045;-27
2022/08/13 10:58:49;;;;;;;1.88;0.80;;;34.90;99.90;;;;;;5056265;28;20040;-27
2022/08/13 11:01:15;;;;;;;5.22;0.85;;;35.10;99.90;;;;;;5055987;28;20498;-27
2022/08/13 11:03:45;;;;;;;1.38;0.70;;;35.40;99.90;;;;;;5055159;28;20053;-28
2022/08/13 11:06:11;;;;;;;3.38;0.60;;;35.80;99.90;;;;;;5039060;28;20135;-29
2022/08/13 11:08:37;;;;;;;1.45;0.70;;;35.90;99.90;;;;;;5056079;28;20080;-28
2022/08/13 11:11:08;;;;;;;1.10;0.70;;;36.10;99.90;;;;;;5055283;28;20052;-28
2022/08/13 11:13:36;;;;;;;1.00;0.60;;;36.20;99.90;;;;;;5055831;28;20052;-28
2022/08/13 11:16:53;;;;;;;2.25;0.70;;;35.70;99.90;;;;;;5055822;28;20060;-28
2022/08/13 11:18:49;;;;;;;5.88;1.08;;;35.50;99.90;;;;;;5055805;28;20403;-27
2022/08/13 11:21:15;;;;;;;1.13;0.70;;;35.60;99.90;;;;;;5055751;28;20053;-27
2022/08/13 11:23:41;;;;;;;3.28;1.90;;;35.80;99.90;;;;;;5055711;28;20041;-28
2022/08/13 11:26:06;;;;;;;2.47;0.90;;;36.00;99.90;;;;;;5054418;28;20551;-28
2022/08/13 11:28:32;;;;;;;1.52;0.70;;;36.00;99.90;;;;;;5052416;28;20048;-28
2022/08/13 11:30:58;;;;;;;3.55;0.70;;;36.00;99.90;;;;;;5055217;28;20052;-28
2022/08/13 11:33:25;;;;;;;0.73;0.70;;;36.10;99.90;;;;;;5054510;28;20048;-28
2022/08/13 11:35:52;;;;;;;4.28;1.00;;;36.30;99.90;;;;;;5053102;28;20057;-28
2022/08/13 11:38:20;;;;;;;8.30;1.40;;;36.30;99.90;;;;;;5055342;28;20044;-28
2022/08/13 11:40:52;;;;;;;3.05;1.15;;;36.50;99.90;;;;;;5047051;28;20048;-28
2022/08/13 11:43:17;;;;;;;1.85;1.05;;;36.60;99.90;;;;;;5043038;28;20045;-28
2022/08/13 11:45:44;;;;;;;2.90;0.80;;;36.70;99.90;;;;;;5055885;28;20048;-28
2022/08/13 11:48:09;;;;;;;2.90;0.80;;;36.60;99.90;;;;;;5054068;28;20052;-28
2022/08/13 11:50:35;;;;;;;2.05;0.90;;;36.70;99.90;;;;;;5055831;28;20390;-28
2022/08/13 11:53:01;;;;;;;2.92;0.80;;;36.70;99.90;;;;;;5055120;28;20120;-28
2022/08/13 11:55:27;;;;;;;2.20;0.70;;;37.00;99.90;;;;;;5038419;28;20048;-28
2022/08/13 11:58:00;;;;;;;2.00;1.20;;;37.20;99.90;;;;;;5070747;28;20051;-28
2022/08/13 12:00:26;;;;;;;1.45;0.77;;;37.10;99.90;;;;;;5054369;28;20040;-28
2022/08/13 12:02:52;;;;;;;5.38;0.93;;;37.00;99.90;;;;;;5054087;28;20084;-28
2022/08/13 12:05:18;;;;;;;1.38;0.75;;;36.80;99.90;;;;;;5053097;28;20045;-28
2022/08/13 12:07:44;;;;;;;2.65;0.85;;;36.50;99.90;;;;;;5054144;28;20041;-28
2022/08/13 12:10:10;;;;;;;1.05;0.95;;;36.70;99.90;;;;;;5052617;28;20111;-28
2022/08/13 12:12:36;;;;;;;1.58;0.80;;;36.70;99.90;;;;;;5051664;28;20049;-28
2022/08/13 12:15:02;;;;;;;2.70;0.88;;;36.90;99.90;;;;;;5054786;28;20060;-28
2022/08/13 12:17:28;;;;;;;2.35;0.70;;;36.70;99.90;;;;;;5053756;28;20053;-28
2022/08/13 12:19:54;;;;;;;4.90;0.77;;;36.70;99.90;;;;;;5052369;28;20049;-29
2022/08/13 12:22:20;;;;;;;2.92;0.80;;;36.60;99.90;;;;;;5054609;28;20037;-28
2022/08/13 12:24:45;;;;;;;1.67;0.70;;;36.40;99.90;;;;;;5053676;28;20443;-28
2022/08/13 12:27:11;;;;;;;2.00;0.80;;;36.10;99.90;;;;;;5054462;28;20041;-29
2022/08/13 12:29:36;;;;;;;1.02;0.63;;;36.10;99.90;;;;;;5054487;28;20041;-28
2022/08/13 12:32:02;;;;;;;2.35;0.80;;;36.10;99.90;;;;;;5054483;28;20053;-28
2022/08/13 12:34:28;;;;;;;1.58;0.50;;;36.10;99.90;;;;;;5053728;28;20060;-28
2022/08/13 12:36:54;;;;;;;0.65;0.60;;;36.30;99.90;;;;;;5053676;28;20044;-28
2022/08/13 12:39:19;;;;;;;3.22;0.70;;;36.40;99.90;;;;;;5054209;28;20051;-28
2022/08/13 12:41:45;;;;;;;2.10;0.75;;;36.40;99.90;;;;;;5052082;28;20677;-28
2022/08/13 12:44:12;;;;;;;1.60;0.60;;;36.90;99.90;;;;;;5052320;28;20040;-28
2022/08/13 12:46:37;;;;;;;5.85;0.75;;;37.20;99.90;;;;;;5053122;28;20033;-28
2022/08/13 12:49:05;;;;;;;1.27;0.70;;;37.30;99.90;;;;;;5053108;28;20398;-28
2022/08/13 12:51:30;;;;;;;0.70;0.70;;;37.20;99.90;;;;;;5051944;28;20164;-28
2022/08/13 12:53:56;;;;;;;1.83;0.75;;;37.40;99.90;;;;;;5052219;28;20045;-29
2022/08/13 12:56:22;;;;;;;5.07;0.70;;;37.30;99.90;;;;;;5034589;28;20498;-28
2022/08/13 12:58:48;;;;;;;2.60;0.70;;;37.20;99.90;;;;;;5053986;28;20045;-28
2022/08/13 13:01:13;;;;;;;4.55;0.90;;;37.30;99.90;;;;;;5053922;28;20423;-28
2022/08/13 13:03:39;;;;;;;1.60;0.82;;;37.20;99.90;;;;;;5053831;28;20103;-28
2022/08/13 13:06:05;;;;;;;2.30;1.00;;;37.00;99.90;;;;;;5052710;28;20552;-28
2022/08/13 13:08:32;;;;;;;2.03;0.80;;;36.90;99.90;;;;;;5050935;28;20083;-28
2022/08/13 13:11:02;;;;;;;2.70;0.90;;;36.90;99.90;;;;;;5052250;28;20038;-28
2022/08/13 13:13:28;;;;;;;3.03;0.95;;;37.00;99.90;;;;;;5053587;28;20041;-28
2022/08/13 13:15:55;;;;;;;1.55;0.77;;;36.90;99.90;;;;;;5050505;28;20045;-29